createdAt,value
2019-02-18T00:02:32.738Z,10.33
2019-02-18T00:05:04.052Z,9.77
2019-02-18T00:07:35.312Z,9.50
2019-02-18T00:10:06.752Z,9.67
2019-02-18T00:12:38.039Z,9.40
2019-02-18T00:15:09.480Z,9.70
2019-02-18T00:17:41.043Z,9.77
2019-02-18T00:20:12.432Z,9.43
2019-02-18T00:22:43.942Z,9.10
2019-02-18T00:25:15.257Z,9.60
2019-02-18T00:27:46.747Z,9.63
2019-02-18T00:30:18.011Z,9.60
2019-02-18T00:32:49.328Z,9.97
2019-02-18T00:35:20.415Z,8.67
2019-02-18T00:37:51.651Z,9.67
2019-02-18T00:40:23.024Z,8.40
2019-02-18T00:42:54.084Z,9.40
2019-02-18T00:45:25.403Z,8.77
2019-02-18T00:47:56.857Z,9.20
2019-02-18T00:50:28.401Z,9.90
2019-02-18T00:52:59.520Z,8.73
2019-02-18T00:55:30.850Z,8.67
2019-02-18T00:58:02.759Z,9.07
2019-02-18T01:00:33.800Z,9.63
2019-02-18T01:03:05.394Z,8.63
2019-02-18T01:05:37.864Z,9.20
2019-02-18T01:08:09.207Z,8.50
2019-02-18T01:10:40.304Z,8.87
2019-02-18T01:13:11.708Z,9.20
2019-02-18T01:15:42.838Z,8.13
2019-02-18T01:18:14.493Z,8.70
2019-02-18T01:20:45.800Z,8.73
2019-02-18T01:23:17.164Z,9.43
2019-02-18T01:25:48.470Z,8.83
2019-02-18T01:28:19.724Z,9.37
2019-02-18T01:30:51.063Z,8.97
2019-02-18T01:33:22.576Z,8.90
2019-02-18T01:35:53.916Z,8.63
2019-02-18T01:38:25.286Z,8.77
2019-02-18T01:40:56.636Z,9.47
2019-02-18T01:43:28.028Z,8.27
2019-02-18T01:45:59.425Z,8.20
2019-02-18T01:48:30.726Z,8.80
2019-02-18T01:51:01.832Z,8.10
2019-02-18T01:53:33.177Z,8.27
2019-02-18T01:56:04.670Z,8.50
2019-02-18T01:58:36.066Z,8.57
2019-02-18T02:01:07.515Z,8.67
2019-02-18T02:03:38.992Z,8.83
2019-02-18T02:06:10.034Z,8.23
2019-02-18T02:08:41.736Z,8.40
2019-02-18T02:11:12.971Z,8.07
2019-02-18T02:13:44.296Z,7.87
2019-02-18T02:16:15.536Z,8.33
2019-02-18T02:18:46.819Z,8.70
2019-02-18T02:21:18.069Z,8.50
2019-02-18T02:23:49.379Z,8.23
2019-02-18T02:26:20.893Z,8.27
2019-02-18T02:28:52.150Z,8.30
2019-02-18T02:31:23.692Z,8.83
2019-02-18T02:33:54.672Z,8.43
2019-02-18T02:36:25.903Z,8.00
2019-02-18T02:38:57.150Z,8.27
2019-02-18T02:41:28.376Z,8.27
2019-02-18T02:43:59.672Z,8.60
2019-02-18T02:46:32.539Z,8.17
2019-02-18T02:49:03.964Z,8.30
2019-02-18T02:51:35.419Z,7.50
2019-02-18T02:54:06.866Z,8.40
2019-02-18T02:56:37.991Z,8.13
2019-02-18T02:59:09.371Z,8.10
2019-02-18T03:01:40.639Z,8.50
2019-02-18T03:04:12.393Z,7.73
2019-02-18T03:06:43.367Z,8.37
2019-02-18T03:09:14.747Z,8.13
2019-02-18T03:11:46.125Z,7.67
2019-02-18T03:14:17.439Z,8.50
2019-02-18T03:16:48.927Z,7.77
2019-02-18T03:19:20.448Z,8.30
2019-02-18T03:21:51.691Z,7.63
2019-02-18T03:24:22.971Z,7.70
2019-02-18T03:26:54.200Z,7.77
2019-02-18T03:30:16.572Z,7.70
2019-02-18T03:32:54.823Z,7.27
2019-02-18T03:35:26.086Z,7.10
2019-02-18T03:37:57.323Z,7.07
2019-02-18T03:40:28.395Z,6.80
2019-02-18T03:42:59.952Z,6.80
2019-02-18T03:45:31.208Z,6.43
2019-02-18T03:48:02.279Z,5.73
2019-02-18T03:50:33.927Z,7.03
2019-02-18T03:53:05.328Z,7.00
2019-02-18T03:55:37.024Z,6.77
2019-02-18T03:58:08.231Z,6.07
2019-02-18T04:00:39.925Z,6.47
2019-02-18T04:03:11.324Z,6.33
2019-02-18T04:05:42.642Z,6.17
2019-02-18T04:08:13.964Z,6.00
2019-02-18T04:10:45.507Z,6.43
2019-02-18T04:13:16.894Z,6.73
2019-02-18T04:15:48.223Z,6.90
2019-02-18T04:18:19.207Z,6.87
2019-02-18T04:20:50.372Z,5.73
2019-02-18T04:23:21.436Z,5.83
2019-02-18T04:25:53.002Z,6.30
2019-02-18T04:28:24.532Z,6.10
2019-02-18T04:30:55.859Z,6.87
2019-02-18T04:33:27.224Z,6.70
2019-02-18T04:35:58.239Z,6.43
2019-02-18T04:38:29.488Z,5.80
2019-02-18T04:41:00.575Z,6.70
2019-02-18T04:43:32.789Z,6.80
2019-02-18T04:46:04.147Z,7.43
2019-02-18T04:48:35.402Z,7.23
2019-02-18T04:51:06.739Z,8.07
2019-02-18T04:53:38.054Z,6.90
2019-02-18T04:56:09.816Z,7.43
2019-02-18T04:58:43.002Z,7.73
2019-02-18T05:01:14.429Z,6.83
2019-02-18T05:03:45.489Z,7.40
2019-02-18T05:06:16.900Z,6.90
2019-02-18T05:08:47.965Z,7.53
2019-02-18T05:11:19.070Z,7.20
2019-02-18T05:13:50.441Z,6.93
2019-02-18T05:16:21.451Z,6.63
2019-02-18T05:18:52.829Z,7.03
2019-02-18T05:21:24.331Z,6.63
2019-02-18T05:23:56.090Z,6.47
2019-02-18T05:26:27.668Z,6.67
2019-02-18T05:28:58.953Z,6.60
2019-02-18T05:31:30.099Z,6.33
2019-02-18T05:34:01.197Z,6.70
2019-02-18T05:36:32.744Z,7.33
2019-02-18T05:39:16.995Z,7.67
2019-02-18T05:41:38.473Z,6.30
2019-02-18T05:44:10.561Z,6.57
2019-02-18T05:46:42.013Z,6.50
2019-02-18T05:49:13.563Z,6.60
2019-02-18T05:51:44.944Z,6.57
2019-02-18T05:54:17.117Z,7.10
2019-02-18T05:56:49.508Z,6.87
2019-02-18T05:59:20.691Z,7.37
2019-02-18T06:01:52.451Z,7.27
2019-02-18T06:04:24.154Z,7.00
2019-02-18T06:06:55.900Z,7.33
2019-02-18T06:09:30.216Z,7.03
2019-02-18T06:12:00.761Z,7.30
2019-02-18T06:14:32.115Z,7.80
2019-02-18T06:17:05.366Z,6.93
2019-02-18T06:19:37.050Z,7.93
2019-02-18T06:22:08.810Z,7.50
2019-02-18T06:24:40.218Z,6.60
2019-02-18T06:27:12.134Z,7.30
2019-02-18T06:29:44.188Z,7.33
2019-02-18T06:32:15.876Z,7.27
2019-02-18T06:34:48.839Z,7.57
2019-02-18T06:37:20.444Z,7.50
2019-02-18T06:39:52.077Z,7.47
2019-02-18T06:42:23.789Z,7.30
2019-02-18T06:45:00.379Z,7.27
2019-02-18T06:47:31.792Z,7.67
2019-02-18T06:50:03.839Z,7.97
2019-02-18T06:52:36.236Z,6.97
2019-02-18T06:55:07.772Z,7.37
2019-02-18T06:57:58.247Z,7.10
2019-02-18T07:00:42.889Z,7.50
2019-02-18T07:03:33.871Z,7.93
2019-02-18T07:06:24.448Z,6.77
2019-02-18T07:09:27.692Z,7.27
2019-02-18T07:12:04.682Z,7.10
2019-02-18T07:14:36.334Z,7.27
2019-02-18T07:17:10.343Z,7.10
2019-02-18T07:19:44.423Z,6.80
2019-02-18T07:22:16.140Z,6.97
2019-02-18T07:24:51.063Z,7.20
2019-02-18T07:27:23.157Z,7.20
2019-02-18T07:29:54.759Z,7.03
2019-02-18T07:32:26.374Z,7.40
2019-02-18T07:34:58.330Z,7.30
2019-02-18T07:37:29.661Z,7.47
2019-02-18T07:40:03.104Z,7.90
2019-02-18T07:42:34.450Z,8.53
2019-02-18T07:45:06.869Z,8.10
2019-02-18T07:47:38.260Z,10.17
2019-02-18T07:50:19.907Z,10.67
2019-02-18T07:52:42.878Z,11.63
2019-02-18T07:55:14.477Z,8.17
2019-02-18T07:57:46.012Z,8.03
2019-02-18T08:00:17.678Z,6.97
2019-02-18T08:02:49.398Z,7.63
2019-02-18T08:05:20.792Z,10.23
2019-02-18T08:07:52.286Z,8.53
2019-02-18T08:10:24.997Z,8.13
2019-02-18T08:12:56.135Z,7.00
2019-02-18T08:15:27.952Z,7.83
2019-02-18T08:18:00.492Z,7.07
2019-02-18T08:20:31.727Z,6.60
2019-02-18T08:23:03.348Z,6.97
2019-02-18T08:25:36.287Z,6.93
2019-02-18T08:28:07.709Z,6.93
2019-02-18T08:30:39.258Z,7.00
2019-02-18T08:33:10.732Z,6.97
2019-02-18T08:35:58.200Z,7.37
2019-02-18T08:38:31.416Z,7.72
2019-02-18T08:41:03.725Z,7.37
2019-02-18T08:43:35.261Z,7.30
2019-02-18T08:46:07.001Z,7.67
2019-02-18T08:48:40.301Z,7.83
2019-02-18T08:51:12.396Z,8.37
2019-02-18T08:53:51.247Z,8.43
2019-02-18T08:56:26.650Z,8.17
2019-02-18T08:58:58.577Z,8.17
2019-02-18T09:01:31.585Z,8.70
2019-02-18T09:04:03.211Z,8.40
2019-02-18T09:06:34.693Z,7.97
2019-02-18T09:09:06.994Z,8.57
2019-02-18T09:11:38.488Z,8.40
2019-02-18T09:14:09.824Z,8.87
2019-02-18T09:16:41.520Z,9.23
2019-02-18T09:19:13.061Z,8.37
2019-02-18T09:21:45.561Z,9.50
2019-02-18T09:24:24.273Z,8.50
2019-02-18T09:26:55.944Z,9.47
2019-02-18T09:29:27.228Z,8.83
2019-02-18T09:31:58.896Z,9.40
2019-02-18T09:34:30.488Z,9.47
2019-02-18T09:37:02.269Z,9.90
2019-02-18T09:39:33.789Z,9.50
2019-02-18T09:42:05.269Z,9.60
2019-02-18T09:44:37.345Z,9.20
2019-02-18T09:47:09.463Z,9.80
2019-02-18T09:49:42.097Z,9.20
2019-02-18T09:52:14.145Z,10.10
2019-02-18T09:54:49.197Z,9.60
2019-02-18T09:57:21.310Z,9.57
2019-02-18T09:59:52.697Z,9.80
2019-02-18T10:02:24.175Z,9.33
2019-02-18T10:04:55.922Z,10.17
2019-02-18T10:07:27.421Z,10.93
2019-02-18T10:10:00.139Z,9.07
2019-02-18T10:12:31.868Z,9.70
2019-02-18T10:15:06.485Z,10.30
2019-02-18T10:17:37.919Z,9.97
2019-02-18T10:20:16.382Z,9.97
2019-02-18T10:22:51.153Z,9.80
2019-02-18T10:25:22.971Z,9.50
2019-02-18T10:27:54.712Z,10.23
2019-02-18T10:30:27.143Z,10.00
2019-02-18T10:32:59.613Z,10.03
2019-02-18T10:35:31.334Z,9.17
2019-02-18T10:38:03.095Z,9.90
2019-02-18T10:40:35.305Z,9.43
2019-02-18T10:43:07.217Z,10.13
2019-02-18T10:45:39.989Z,9.73
2019-02-18T10:48:12.047Z,9.73
2019-02-18T10:50:44.244Z,10.00
2019-02-18T10:53:16.341Z,10.97
2019-02-18T10:55:48.115Z,9.37
2019-02-18T10:58:19.487Z,10.17
2019-02-18T11:00:51.138Z,9.63
2019-02-18T11:03:23.804Z,10.47
2019-02-18T11:05:56.024Z,10.45
2019-02-18T11:08:27.712Z,9.73
2019-02-18T11:11:01.963Z,10.40
2019-02-18T11:13:34.085Z,10.00
2019-02-18T11:16:05.652Z,10.57
2019-02-18T11:18:37.710Z,10.53
2019-02-18T11:21:09.454Z,9.73
2019-02-18T11:23:40.554Z,10.33
2019-02-18T11:26:13.036Z,9.70
2019-02-18T11:28:44.538Z,10.00
2019-02-18T11:31:16.116Z,10.43
2019-02-18T11:33:47.860Z,9.37
2019-02-18T11:36:19.291Z,9.70
2019-02-18T11:38:50.565Z,8.80
2019-02-18T11:41:27.528Z,9.17
2019-02-18T11:43:56.707Z,9.33
2019-02-18T11:46:28.261Z,9.50
2019-02-18T11:48:59.654Z,9.97
2019-02-18T11:51:31.103Z,10.53
2019-02-18T11:54:02.853Z,8.67
2019-02-18T11:56:34.135Z,8.77
2019-02-18T11:59:05.635Z,8.80
2019-02-18T12:01:37.000Z,9.60
2019-02-18T12:04:09.192Z,8.77
2019-02-18T12:06:40.729Z,8.83
2019-02-18T12:09:13.514Z,9.10
2019-02-18T12:11:45.303Z,8.97
2019-02-18T12:14:17.659Z,8.63
2019-02-18T12:16:49.480Z,9.17
2019-02-18T12:19:21.609Z,8.50
2019-02-18T12:21:52.892Z,8.40
2019-02-18T12:24:24.351Z,8.93
2019-02-18T12:26:56.677Z,9.43
2019-02-18T12:29:28.454Z,8.17
2019-02-18T12:31:59.689Z,9.43
2019-02-18T12:34:32.034Z,9.77
2019-02-18T12:37:05.500Z,8.60
2019-02-18T12:39:38.065Z,9.33
2019-02-18T12:42:09.961Z,8.90
2019-02-18T12:44:42.003Z,8.67
2019-02-18T12:47:14.455Z,8.57
2019-02-18T12:49:47.266Z,9.43
2019-02-18T12:52:18.620Z,9.53
2019-02-18T12:55:00.335Z,9.17
2019-02-18T12:57:33.037Z,8.57
2019-02-18T13:00:05.694Z,9.07
2019-02-18T13:02:44.443Z,8.70
2019-02-18T13:05:11.093Z,9.30
2019-02-18T13:07:43.150Z,9.83
2019-02-18T13:10:15.153Z,8.20
2019-02-18T13:12:47.248Z,8.47
2019-02-18T13:15:22.181Z,8.70
2019-02-18T13:17:53.697Z,9.03
2019-02-18T13:20:27.072Z,8.37
2019-02-18T13:22:58.739Z,8.97
2019-02-18T13:25:31.001Z,9.60
2019-02-18T13:28:08.403Z,9.07
2019-02-18T13:30:37.285Z,8.73
2019-02-18T13:33:21.288Z,8.57
2019-02-18T13:35:53.789Z,8.30
2019-02-18T13:38:25.361Z,8.57
2019-02-18T13:40:56.824Z,9.83
2019-02-18T13:43:28.465Z,8.80
2019-02-18T13:46:00.854Z,9.10
2019-02-18T13:48:32.837Z,9.33
2019-02-18T13:51:05.994Z,8.87
2019-02-18T13:53:37.566Z,9.00
2019-02-18T13:56:09.618Z,9.67
2019-02-18T13:58:41.069Z,10.43
2019-02-18T14:01:13.212Z,8.70
2019-02-18T14:03:44.332Z,9.27
2019-02-18T14:06:16.004Z,8.63
2019-02-18T14:08:47.665Z,9.10
2019-02-18T14:11:19.518Z,8.40
2019-02-18T14:13:53.156Z,9.00
2019-02-18T14:16:24.449Z,13.33
2019-02-18T14:18:56.242Z,10.13
2019-02-18T14:21:27.704Z,14.53
2019-02-18T14:23:58.743Z,10.07
2019-02-18T14:26:30.505Z,9.30
2019-02-18T14:29:01.726Z,8.97
2019-02-18T14:31:33.085Z,9.27
2019-02-18T14:34:07.016Z,9.93
2019-02-18T14:36:38.356Z,14.60
2019-02-18T14:39:19.905Z,10.33
2019-02-18T14:41:51.608Z,9.37
2019-02-18T14:44:22.946Z,8.97
2019-02-18T14:46:54.701Z,9.50
2019-02-18T14:49:26.352Z,10.00
2019-02-18T14:51:59.751Z,9.23
2019-02-18T14:54:31.252Z,9.67
2019-02-18T14:57:02.701Z,8.83
2019-02-18T14:59:34.220Z,9.10
2019-02-18T15:02:06.031Z,9.80
2019-02-18T15:04:37.623Z,9.43
2019-02-18T15:07:09.288Z,9.67
2019-02-18T15:09:40.792Z,9.67
2019-02-18T15:12:12.146Z,10.37
2019-02-18T15:14:44.875Z,9.70
2019-02-18T15:17:16.429Z,9.37
2019-02-18T15:19:48.056Z,9.63
2019-02-18T15:22:19.373Z,9.97
2019-02-18T15:24:50.806Z,9.23
2019-02-18T15:27:22.335Z,9.90
2019-02-18T15:29:53.888Z,9.00
2019-02-18T15:32:25.929Z,9.93
2019-02-18T15:34:57.205Z,9.60
2019-02-18T15:37:28.872Z,9.60
2019-02-18T15:40:01.950Z,9.67
2019-02-18T15:42:41.792Z,9.67
2019-02-18T15:45:08.371Z,9.07
2019-02-18T15:47:39.820Z,9.20
2019-02-18T15:50:12.311Z,9.57
2019-02-18T15:52:44.078Z,10.20
2019-02-18T15:55:15.829Z,10.77
2019-02-18T15:57:47.440Z,9.77
2019-02-18T16:00:20.998Z,9.63
2019-02-18T16:02:56.512Z,9.97
2019-02-18T16:05:28.178Z,10.07
2019-02-18T16:08:00.239Z,10.03
2019-02-18T16:10:37.635Z,11.40
2019-02-18T16:13:10.936Z,10.80
2019-02-18T16:15:42.087Z,10.83
2019-02-18T16:18:13.559Z,10.87
2019-02-18T16:20:44.944Z,11.50
2019-02-18T16:23:16.236Z,11.50
2019-02-18T16:25:48.156Z,11.00
2019-02-18T16:28:20.025Z,11.23
2019-02-18T16:30:51.565Z,11.00
2019-02-18T16:33:23.025Z,11.10
2019-02-18T16:35:54.200Z,12.90
2019-02-18T16:38:34.120Z,12.20
2019-02-18T16:41:04.821Z,12.23
2019-02-18T16:43:37.734Z,12.40
2019-02-18T16:46:09.063Z,14.07
2019-02-18T16:48:40.857Z,16.87
2019-02-18T16:51:13.403Z,14.47
2019-02-18T16:53:45.380Z,12.80
2019-02-18T16:56:17.168Z,12.70
2019-02-18T16:58:48.827Z,36.47
2019-02-18T17:01:20.688Z,13.57
2019-02-18T17:03:53.531Z,9.87
2019-02-18T17:06:25.186Z,10.17
2019-02-18T17:08:58.000Z,12.20
2019-02-18T17:11:29.588Z,11.07
2019-02-18T17:14:12.859Z,10.30
2019-02-18T17:16:53.583Z,10.40
2019-02-18T17:19:32.287Z,11.23
2019-02-18T17:22:04.171Z,11.17
2019-02-18T17:24:35.340Z,10.90
2019-02-18T17:27:06.704Z,10.83
2019-02-18T17:29:42.549Z,9.60
2019-02-18T17:32:14.171Z,10.07
2019-02-18T17:34:46.440Z,9.80
2019-02-18T17:37:18.696Z,10.07
2019-02-18T17:39:50.275Z,9.60
2019-02-18T17:42:21.769Z,9.80
2019-02-18T17:44:53.133Z,9.00
2019-02-18T17:47:24.722Z,9.10
2019-02-18T17:49:56.204Z,9.33
2019-02-18T17:52:28.054Z,9.40
2019-02-18T17:55:05.122Z,9.30
2019-02-18T17:57:36.870Z,9.40
2019-02-18T18:00:11.112Z,16.43
2019-02-18T18:02:46.633Z,9.93
2019-02-18T18:05:18.924Z,10.17
2019-02-18T18:07:50.451Z,9.53
2019-02-18T18:10:22.428Z,10.30
2019-02-18T18:12:55.300Z,10.53
2019-02-18T18:15:26.559Z,10.57
2019-02-18T18:17:59.300Z,9.53
2019-02-18T18:20:30.921Z,10.80
2019-02-18T18:23:06.124Z,10.93
2019-02-18T18:25:38.005Z,10.80
2019-02-18T18:28:09.462Z,10.53
2019-02-18T18:30:41.626Z,9.23
2019-02-18T18:33:15.238Z,10.67
2019-02-18T18:35:47.166Z,9.10
2019-02-18T18:38:18.837Z,9.17
2019-02-18T18:40:54.272Z,10.27
2019-02-18T18:43:33.589Z,10.57
2019-02-18T18:45:59.200Z,10.60
2019-02-18T18:48:30.585Z,10.80
2019-02-18T18:51:03.323Z,10.23
2019-02-18T18:53:34.744Z,9.63
2019-02-18T18:56:08.141Z,10.03
2019-02-18T18:58:39.544Z,9.83
2019-02-18T19:01:11.048Z,10.10
2019-02-18T19:03:42.509Z,10.13
2019-02-18T19:06:13.960Z,9.97
2019-02-18T19:08:45.456Z,10.40
2019-02-18T19:11:16.905Z,11.13
2019-02-18T19:13:48.370Z,10.70
2019-02-18T19:16:19.807Z,11.47
2019-02-18T19:18:51.632Z,10.33
2019-02-18T19:21:23.867Z,10.90
2019-02-18T19:23:55.440Z,10.60
2019-02-18T19:26:27.923Z,9.93
2019-02-18T19:28:59.519Z,11.33
2019-02-18T19:31:30.853Z,11.90
2019-02-18T19:34:02.519Z,13.43
2019-02-18T19:36:34.149Z,10.97
2019-02-18T19:39:05.961Z,10.90
2019-02-18T19:41:37.620Z,14.17
2019-02-18T19:44:11.902Z,11.67
2019-02-18T19:46:46.129Z,10.83
2019-02-18T19:49:17.628Z,13.87
2019-02-18T19:51:48.952Z,12.70
2019-02-18T19:54:20.618Z,10.90
2019-02-18T19:56:52.464Z,10.90
2019-02-18T19:59:23.938Z,10.97
2019-02-18T20:01:55.379Z,13.77
2019-02-18T20:04:28.069Z,17.07
2019-02-18T20:06:59.924Z,13.90
2019-02-18T20:09:31.493Z,20.33
2019-02-18T20:12:02.881Z,21.53
2019-02-18T20:14:34.443Z,22.60
2019-02-18T20:17:05.895Z,18.23
2019-02-18T20:19:37.357Z,19.03
2019-02-18T20:22:09.472Z,14.90
2019-02-18T20:24:41.156Z,14.07
2019-02-18T20:27:17.967Z,14.20
2019-02-18T20:29:49.635Z,13.13
2019-02-18T20:32:21.234Z,13.10
2019-02-18T20:34:52.565Z,12.40
2019-02-18T20:37:23.655Z,12.97
2019-02-18T20:39:57.757Z,12.83
2019-02-18T20:42:29.732Z,11.77
2019-02-18T20:45:01.722Z,11.40
2019-02-18T20:47:34.758Z,12.53
2019-02-18T20:50:06.544Z,12.03
2019-02-18T20:52:38.801Z,12.47
2019-02-18T20:55:11.489Z,12.30
2019-02-18T20:57:42.943Z,12.07
2019-02-18T21:00:17.135Z,13.20
2019-02-18T21:02:52.693Z,11.93
2019-02-18T21:05:24.054Z,11.23
2019-02-18T21:07:56.072Z,11.83
2019-02-18T21:10:27.332Z,13.07
2019-02-18T21:12:58.808Z,12.77
2019-02-18T21:15:30.359Z,12.60
2019-02-18T21:18:02.915Z,12.27
2019-02-18T21:20:35.086Z,12.07
2019-02-18T21:23:08.362Z,11.33
2019-02-18T21:25:40.229Z,13.73
2019-02-18T21:28:11.650Z,14.07
2019-02-18T21:30:43.693Z,12.37
2019-02-18T21:33:15.637Z,12.47
2019-02-18T21:35:46.913Z,12.60
2019-02-18T21:38:18.492Z,13.03
2019-02-18T21:40:49.888Z,11.63
2019-02-18T21:43:21.984Z,13.07
2019-02-18T21:45:53.484Z,16.47
2019-02-18T21:48:26.781Z,13.17
2019-02-18T21:50:58.492Z,13.03
2019-02-18T21:53:30.379Z,13.33
2019-02-18T21:56:01.884Z,13.77
2019-02-18T21:58:33.140Z,13.73
2019-02-18T22:01:04.683Z,14.73
2019-02-18T22:03:36.154Z,14.33
2019-02-18T22:06:07.684Z,13.63
2019-02-18T22:08:39.693Z,14.73
2019-02-18T22:11:11.008Z,14.27
2019-02-18T22:13:43.039Z,13.80
2019-02-18T22:16:14.917Z,14.37
2019-02-18T22:18:45.960Z,14.00
2019-02-18T22:21:17.712Z,13.60
2019-02-18T22:23:49.124Z,14.43
2019-02-18T22:26:20.285Z,13.90
2019-02-18T22:28:51.551Z,14.73
2019-02-18T22:31:22.931Z,16.10
2019-02-18T22:33:54.048Z,14.83
2019-02-18T22:36:25.912Z,16.03
2019-02-18T22:39:00.830Z,15.73
2019-02-18T22:41:32.592Z,15.20
2019-02-18T22:44:04.114Z,14.80
2019-02-18T22:46:35.492Z,17.80
2019-02-18T22:49:06.869Z,22.97
2019-02-18T22:51:38.032Z,23.80
2019-02-18T22:54:09.444Z,26.00
2019-02-18T22:56:40.935Z,25.37
2019-02-18T22:59:13.208Z,24.17
2019-02-18T23:01:44.945Z,25.70
2019-02-18T23:04:16.790Z,24.67
2019-02-18T23:06:48.309Z,24.87
2019-02-18T23:09:19.941Z,24.77
2019-02-18T23:11:51.132Z,24.87
2019-02-18T23:14:22.517Z,24.93
2019-02-18T23:16:53.919Z,26.67
2019-02-18T23:19:25.219Z,24.43
2019-02-18T23:21:56.800Z,24.53
2019-02-18T23:24:28.183Z,25.37
2019-02-18T23:26:59.244Z,25.20
2019-02-18T23:29:30.915Z,26.03
2019-02-18T23:32:02.402Z,26.13
2019-02-18T23:34:33.808Z,28.37
2019-02-18T23:37:04.997Z,26.73
2019-02-18T23:39:36.611Z,25.73
2019-02-18T23:42:08.063Z,26.17
2019-02-18T23:44:39.461Z,27.10
2019-02-18T23:47:11.255Z,27.30
2019-02-18T23:49:42.655Z,25.67
2019-02-18T23:52:14.400Z,24.10
2019-02-18T23:54:45.772Z,23.50
2019-02-18T23:57:16.836Z,20.90
2019-02-18T23:59:48.100Z,21.83
